sensor_id;sensor_type;location;lat;lon;timestamp;P1;durP1;ratioP1;P2;durP2;ratioP2
1082;SDS011;530;51.448;7.238;2023-06-24T00:01:25;8.17;;;7.17;;
1082;SDS011;530;51.448;7.238;2023-06-24T00:03:51;8.07;;;7.27;;
1082;SDS011;530;51.448;7.238;2023-06-24T00:06:21;9.60;;;7.13;;
1082;SDS011;530;51.448;7.238;2023-06-24T00:08:50;7.43;;;6.60;;
1082;SDS011;530;51.448;7.238;2023-06-24T00:11:15;6.97;;;6.37;;
1082;SDS011;530;51.448;7.238;2023-06-24T00:13:41;8.37;;;6.67;;
1082;SDS011;530;51.448;7.238;2023-06-24T00:16:08;8.37;;;7.00;;
1082;SDS011;530;51.448;7.238;2023-06-24T00:18:35;7.63;;;6.83;;
1082;SDS011;530;51.448;7.238;2023-06-24T00:21:02;7.40;;;6.67;;
1082;SDS011;530;51.448;7.238;2023-06-24T00:23:29;7.40;;;6.30;;
1082;SDS011;530;51.448;7.238;2023-06-24T00:25:59;7.47;;;6.77;;
1082;SDS011;530;51.448;7.238;2023-06-24T00:28:25;7.17;;;6.47;;
1082;SDS011;530;51.448;7.238;2023-06-24T00:30:52;7.07;;;6.37;;
1082;SDS011;530;51.448;7.238;2023-06-24T00:33:18;7.40;;;6.70;;
1082;SDS011;530;51.448;7.238;2023-06-24T00:35:45;8.30;;;6.73;;
1082;SDS011;530;51.448;7.238;2023-06-24T00:38:11;7.00;;;6.40;;
1082;SDS011;530;51.448;7.238;2023-06-24T00:40:37;6.83;;;6.23;;
1082;SDS011;530;51.448;7.238;2023-06-24T00:43:04;8.03;;;7.33;;
1082;SDS011;530;51.448;7.238;2023-06-24T00:45:31;7.30;;;6.37;;
1082;SDS011;530;51.448;7.238;2023-06-24T00:47:57;7.63;;;6.93;;
1082;SDS011;530;51.448;7.238;2023-06-24T00:50:26;7.40;;;6.73;;
1082;SDS011;530;51.448;7.238;2023-06-24T00:52:52;7.40;;;6.10;;
1082;SDS011;530;51.448;7.238;2023-06-24T00:55:18;8.83;;;7.43;;
1082;SDS011;530;51.448;7.238;2023-06-24T00:57:46;7.10;;;6.50;;
1082;SDS011;530;51.448;7.238;2023-06-24T01:00:17;7.90;;;7.10;;
1082;SDS011;530;51.448;7.238;2023-06-24T01:02:44;9.97;;;8.30;;
1082;SDS011;530;51.448;7.238;2023-06-24T01:05:11;7.63;;;6.87;;
1082;SDS011;530;51.448;7.238;2023-06-24T01:07:37;8.00;;;7.20;;
1082;SDS011;530;51.448;7.238;2023-06-24T01:10:04;8.20;;;7.50;;
1082;SDS011;530;51.448;7.238;2023-06-24T01:12:33;6.90;;;6.30;;
1082;SDS011;530;51.448;7.238;2023-06-24T01:14:59;8.43;;;7.13;;
1082;SDS011;530;51.448;7.238;2023-06-24T01:17:35;7.10;;;6.00;;
1082;SDS011;530;51.448;7.238;2023-06-24T01:37:23;8.53;;;7.50;;
1082;SDS011;530;51.448;7.238;2023-06-24T01:42:33;7.80;;;7.10;;
1082;SDS011;530;51.448;7.238;2023-06-24T01:45:12;7.73;;;6.93;;
1082;SDS011;530;51.448;7.238;2023-06-24T01:47:43;7.53;;;6.87;;
1082;SDS011;530;51.448;7.238;2023-06-24T01:50:12;7.67;;;6.97;;
1082;SDS011;530;51.448;7.238;2023-06-24T01:52:41;8.23;;;7.43;;
1082;SDS011;530;51.448;7.238;2023-06-24T01:55:10;7.30;;;6.70;;
1082;SDS011;530;51.448;7.238;2023-06-24T01:57:40;8.90;;;7.17;;
1082;SDS011;530;51.448;7.238;2023-06-24T02:00:07;7.40;;;6.70;;
1082;SDS011;530;51.448;7.238;2023-06-24T02:02:35;7.20;;;6.53;;
1082;SDS011;530;51.448;7.238;2023-06-24T02:05:02;7.93;;;7.13;;
1082;SDS011;530;51.448;7.238;2023-06-24T02:07:30;7.33;;;6.73;;
1082;SDS011;530;51.448;7.238;2023-06-24T02:09:57;9.10;;;7.37;;
1082;SDS011;530;51.448;7.238;2023-06-24T02:12:25;7.30;;;6.60;;
1082;SDS011;530;51.448;7.238;2023-06-24T02:14:54;6.80;;;6.20;;
1082;SDS011;530;51.448;7.238;2023-06-24T02:17:21;7.23;;;6.60;;
1082;SDS011;530;51.448;7.238;2023-06-24T02:19:50;8.03;;;7.23;;
1082;SDS011;530;51.448;7.238;2023-06-24T02:22:17;7.87;;;7.17;;
1082;SDS011;530;51.448;7.238;2023-06-24T02:24:43;7.57;;;6.67;;
1082;SDS011;530;51.448;7.238;2023-06-24T02:27:09;8.10;;;7.40;;
1082;SDS011;530;51.448;7.238;2023-06-24T02:29:37;8.07;;;7.27;;
1082;SDS011;530;51.448;7.238;2023-06-24T02:32:04;7.80;;;7.10;;
1082;SDS011;530;51.448;7.238;2023-06-24T02:34:31;7.87;;;7.17;;
1082;SDS011;530;51.448;7.238;2023-06-24T02:36:57;7.57;;;6.83;;
1082;SDS011;530;51.448;7.238;2023-06-24T02:39:22;6.70;;;6.00;;
1082;SDS011;530;51.448;7.238;2023-06-24T02:41:48;7.30;;;6.60;;
1082;SDS011;530;51.448;7.238;2023-06-24T02:44:14;8.40;;;7.60;;
1082;SDS011;530;51.448;7.238;2023-06-24T02:46:41;7.33;;;6.50;;
1082;SDS011;530;51.448;7.238;2023-06-24T02:49:09;8.03;;;6.30;;
1082;SDS011;530;51.448;7.238;2023-06-24T02:51:38;6.93;;;6.33;;
1082;SDS011;530;51.448;7.238;2023-06-24T02:54:04;7.83;;;6.73;;
1082;SDS011;530;51.448;7.238;2023-06-24T02:56:31;6.70;;;6.10;;
1082;SDS011;530;51.448;7.238;2023-06-24T02:58:57;7.13;;;6.43;;
1082;SDS011;530;51.448;7.238;2023-06-24T03:01:23;7.47;;;6.77;;
1082;SDS011;530;51.448;7.238;2023-06-24T03:03:54;7.93;;;6.97;;
1082;SDS011;530;51.448;7.238;2023-06-24T03:06:21;8.23;;;6.40;;
1082;SDS011;530;51.448;7.238;2023-06-24T03:08:49;7.83;;;6.80;;
1082;SDS011;530;51.448;7.238;2023-06-24T03:11:15;7.70;;;7.00;;
1082;SDS011;530;51.448;7.238;2023-06-24T03:13:41;7.80;;;7.10;;
1082;SDS011;530;51.448;7.238;2023-06-24T03:16:08;7.57;;;6.87;;
1082;SDS011;530;51.448;7.238;2023-06-24T03:18:37;9.87;;;7.07;;
1082;SDS011;530;51.448;7.238;2023-06-24T03:21:06;11.20;;;6.27;;
1082;SDS011;530;51.448;7.238;2023-06-24T03:23:32;7.20;;;6.50;;
1082;SDS011;530;51.448;7.238;2023-06-24T03:25:58;8.20;;;7.20;;
1082;SDS011;530;51.448;7.238;2023-06-24T03:28:24;8.37;;;7.43;;
1082;SDS011;530;51.448;7.238;2023-06-24T03:30:49;7.80;;;7.10;;
1082;SDS011;530;51.448;7.238;2023-06-24T03:33:15;8.53;;;7.73;;
1082;SDS011;530;51.448;7.238;2023-06-24T03:35:45;7.90;;;7.10;;
1082;SDS011;530;51.448;7.238;2023-06-24T03:38:10;7.20;;;6.60;;
1082;SDS011;530;51.448;7.238;2023-06-24T03:40:36;8.43;;;7.30;;
1082;SDS011;530;51.448;7.238;2023-06-24T03:43:02;7.57;;;6.80;;
1082;SDS011;530;51.448;7.238;2023-06-24T03:45:28;8.33;;;7.10;;
1082;SDS011;530;51.448;7.238;2023-06-24T03:47:53;9.53;;;6.70;;
1082;SDS011;530;51.448;7.238;2023-06-24T03:50:19;7.70;;;6.90;;
1082;SDS011;530;51.448;7.238;2023-06-24T03:52:45;7.03;;;6.43;;
1082;SDS011;530;51.448;7.238;2023-06-24T03:55:10;7.13;;;6.43;;
1082;SDS011;530;51.448;7.238;2023-06-24T03:57:36;9.37;;;6.50;;
1082;SDS011;530;51.448;7.238;2023-06-24T04:00:03;7.70;;;7.00;;
1082;SDS011;530;51.448;7.238;2023-06-24T04:02:41;9.30;;;6.80;;
1082;SDS011;530;51.448;7.238;2023-06-24T04:05:07;9.87;;;7.10;;
1082;SDS011;530;51.448;7.238;2023-06-24T04:07:33;7.60;;;6.90;;
1082;SDS011;530;51.448;7.238;2023-06-24T04:10:01;7.67;;;6.97;;
1082;SDS011;530;51.448;7.238;2023-06-24T04:12:28;8.70;;;6.20;;
1082;SDS011;530;51.448;7.238;2023-06-24T04:14:54;7.33;;;6.47;;
1082;SDS011;530;51.448;7.238;2023-06-24T04:17:20;7.60;;;6.90;;
1082;SDS011;530;51.448;7.238;2023-06-24T04:19:46;7.40;;;6.57;;
1082;SDS011;530;51.448;7.238;2023-06-24T04:22:11;6.70;;;6.00;;
1082;SDS011;530;51.448;7.238;2023-06-24T04:24:37;6.90;;;6.20;;
1082;SDS011;530;51.448;7.238;2023-06-24T04:27:03;8.03;;;7.20;;
1082;SDS011;530;51.448;7.238;2023-06-24T04:29:29;7.20;;;6.20;;
1082;SDS011;530;51.448;7.238;2023-06-24T04:31:54;7.10;;;6.40;;
1082;SDS011;530;51.448;7.238;2023-06-24T04:34:20;10.93;;;7.00;;
1082;SDS011;530;51.448;7.238;2023-06-24T04:36:46;6.97;;;6.37;;
1082;SDS011;530;51.448;7.238;2023-06-24T04:39:11;7.13;;;6.40;;
1082;SDS011;530;51.448;7.238;2023-06-24T04:41:37;8.13;;;6.30;;
1082;SDS011;530;51.448;7.238;2023-06-24T04:44:02;7.10;;;6.40;;
1082;SDS011;530;51.448;7.238;2023-06-24T04:46:28;7.27;;;6.57;;
1082;SDS011;530;51.448;7.238;2023-06-24T04:48:54;7.77;;;6.73;;
1082;SDS011;530;51.448;7.238;2023-06-24T04:51:20;9.30;;;6.97;;
1082;SDS011;530;51.448;7.238;2023-06-24T04:53:45;7.17;;;5.90;;
1082;SDS011;530;51.448;7.238;2023-06-24T04:56:11;7.73;;;6.73;;
1082;SDS011;530;51.448;7.238;2023-06-24T04:58:37;8.63;;;7.13;;
1082;SDS011;530;51.448;7.238;2023-06-24T05:01:02;7.03;;;6.27;;
1082;SDS011;530;51.448;7.238;2023-06-24T05:03:28;7.87;;;6.50;;
1082;SDS011;530;51.448;7.238;2023-06-24T05:05:54;10.10;;;6.83;;
1082;SDS011;530;51.448;7.238;2023-06-24T05:08:19;9.70;;;7.27;;
1082;SDS011;530;51.448;7.238;2023-06-24T05:10:45;7.20;;;6.50;;
1082;SDS011;530;51.448;7.238;2023-06-24T05:13:11;7.03;;;6.33;;
1082;SDS011;530;51.448;7.238;2023-06-24T05:15:36;9.17;;;6.50;;
1082;SDS011;530;51.448;7.238;2023-06-24T05:18:02;9.03;;;6.83;;
1082;SDS011;530;51.448;7.238;2023-06-24T05:20:28;6.87;;;6.30;;
1082;SDS011;530;51.448;7.238;2023-06-24T05:22:54;7.37;;;6.67;;
1082;SDS011;530;51.448;7.238;2023-06-24T05:25:19;7.87;;;6.80;;
1082;SDS011;530;51.448;7.238;2023-06-24T05:27:45;6.97;;;6.37;;
1082;SDS011;530;51.448;7.238;2023-06-24T05:30:11;7.90;;;7.20;;
1082;SDS011;530;51.448;7.238;2023-06-24T05:32:38;7.60;;;6.33;;
1082;SDS011;530;51.448;7.238;2023-06-24T05:35:04;7.50;;;6.80;;
1082;SDS011;530;51.448;7.238;2023-06-24T05:37:29;7.93;;;6.20;;
1082;SDS011;530;51.448;7.238;2023-06-24T05:39:55;7.10;;;6.50;;
1082;SDS011;530;51.448;7.238;2023-06-24T05:42:22;7.30;;;6.60;;
1082;SDS011;530;51.448;7.238;2023-06-24T05:44:48;7.30;;;6.20;;
1082;SDS011;530;51.448;7.238;2023-06-24T05:47:14;12.90;;;6.40;;
1082;SDS011;530;51.448;7.238;2023-06-24T05:49:39;8.23;;;7.40;;
1082;SDS011;530;51.448;7.238;2023-06-24T05:52:05;7.23;;;6.47;;
1082;SDS011;530;51.448;7.238;2023-06-24T05:54:31;6.30;;;5.70;;
1082;SDS011;530;51.448;7.238;2023-06-24T05:56:57;8.77;;;7.13;;
1082;SDS011;530;51.448;7.238;2023-06-24T05:59:22;7.30;;;6.13;;
1082;SDS011;530;51.448;7.238;2023-06-24T06:01:48;5.97;;;5.37;;
1082;SDS011;530;51.448;7.238;2023-06-24T06:04:14;6.50;;;5.90;;
1082;SDS011;530;51.448;7.238;2023-06-24T06:06:39;6.83;;;5.90;;
1082;SDS011;530;51.448;7.238;2023-06-24T06:09:05;5.90;;;5.10;;
1082;SDS011;530;51.448;7.238;2023-06-24T06:11:31;6.00;;;5.43;;
1082;SDS011;530;51.448;7.238;2023-06-24T06:13:57;7.40;;;6.27;;
1082;SDS011;530;51.448;7.238;2023-06-24T06:16:22;6.40;;;5.80;;
1082;SDS011;530;51.448;7.238;2023-06-24T06:18:48;6.77;;;6.07;;
1082;SDS011;530;51.448;7.238;2023-06-24T06:21:14;7.57;;;5.60;;
1082;SDS011;530;51.448;7.238;2023-06-24T06:23:40;7.43;;;5.70;;
1082;SDS011;530;51.448;7.238;2023-06-24T06:26:06;6.47;;;5.50;;
1082;SDS011;530;51.448;7.238;2023-06-24T06:28:32;6.50;;;5.90;;
1082;SDS011;530;51.448;7.238;2023-06-24T06:30:57;7.90;;;7.00;;
1082;SDS011;530;51.448;7.238;2023-06-24T06:33:23;6.00;;;5.40;;
1082;SDS011;530;51.448;7.238;2023-06-24T06:35:49;7.87;;;6.60;;
1082;SDS011;530;51.448;7.238;2023-06-24T06:38:14;6.83;;;6.03;;
1082;SDS011;530;51.448;7.238;2023-06-24T06:40:40;6.93;;;6.30;;
1082;SDS011;530;51.448;7.238;2023-06-24T06:43:05;7.00;;;6.40;;
1082;SDS011;530;51.448;7.238;2023-06-24T06:45:31;9.93;;;7.77;;
1082;SDS011;530;51.448;7.238;2023-06-24T06:47:57;6.93;;;6.33;;
1082;SDS011;530;51.448;7.238;2023-06-24T06:50:22;8.17;;;7.03;;
1082;SDS011;530;51.448;7.238;2023-06-24T06:52:48;10.27;;;7.40;;
1082;SDS011;530;51.448;7.238;2023-06-24T06:55:14;11.13;;;8.70;;
1082;SDS011;530;51.448;7.238;2023-06-24T06:57:40;9.00;;;8.10;;
1082;SDS011;530;51.448;7.238;2023-06-24T07:00:05;9.23;;;8.43;;
1082;SDS011;530;51.448;7.238;2023-06-24T07:02:32;8.83;;;8.00;;
1082;SDS011;530;51.448;7.238;2023-06-24T07:04:57;9.57;;;8.67;;
1082;SDS011;530;51.448;7.238;2023-06-24T07:07:24;10.43;;;9.07;;
1082;SDS011;530;51.448;7.238;2023-06-24T07:09:50;12.03;;;9.30;;
1082;SDS011;530;51.448;7.238;2023-06-24T07:12:15;8.87;;;8.07;;
1082;SDS011;530;51.448;7.238;2023-06-24T07:14:41;12.83;;;9.70;;
1082;SDS011;530;51.448;7.238;2023-06-24T07:17:07;9.50;;;8.60;;
1082;SDS011;530;51.448;7.238;2023-06-24T07:19:32;10.10;;;8.40;;
1082;SDS011;530;51.448;7.238;2023-06-24T07:21:58;9.07;;;8.37;;
1082;SDS011;530;51.448;7.238;2023-06-24T07:24:24;10.50;;;9.37;;
1082;SDS011;530;51.448;7.238;2023-06-24T07:26:49;8.60;;;7.80;;
1082;SDS011;530;51.448;7.238;2023-06-24T07:29:15;8.63;;;7.83;;
1082;SDS011;530;51.448;7.238;2023-06-24T07:31:41;9.40;;;8.13;;
1082;SDS011;530;51.448;7.238;2023-06-24T07:34:07;10.03;;;8.33;;
1082;SDS011;530;51.448;7.238;2023-06-24T07:36:32;11.50;;;7.80;;
1082;SDS011;530;51.448;7.238;2023-06-24T07:38:58;9.00;;;8.10;;
1082;SDS011;530;51.448;7.238;2023-06-24T07:41:24;8.57;;;7.77;;
1082;SDS011;530;51.448;7.238;2023-06-24T07:43:49;13.43;;;9.00;;
1082;SDS011;530;51.448;7.238;2023-06-24T07:46:15;10.33;;;9.33;;
1082;SDS011;530;51.448;7.238;2023-06-24T07:48:41;10.67;;;9.77;;
1082;SDS011;530;51.448;7.238;2023-06-24T07:51:07;10.10;;;9.10;;
1082;SDS011;530;51.448;7.238;2023-06-24T07:53:32;11.70;;;10.60;;
1082;SDS011;530;51.448;7.238;2023-06-24T07:55:58;10.50;;;9.57;;
1082;SDS011;530;51.448;7.238;2023-06-24T07:58:24;10.33;;;9.33;;
1082;SDS011;530;51.448;7.238;2023-06-24T08:00:50;11.53;;;10.23;;
1082;SDS011;530;51.448;7.238;2023-06-24T08:03:15;11.67;;;10.70;;
1082;SDS011;530;51.448;7.238;2023-06-24T08:05:41;10.60;;;9.60;;
1082;SDS011;530;51.448;7.238;2023-06-24T08:08:07;30.97;;;12.60;;
1082;SDS011;530;51.448;7.238;2023-06-24T08:10:33;48.47;;;15.23;;
1082;SDS011;530;51.448;7.238;2023-06-24T08:12:59;21.70;;;12.90;;
1082;SDS011;530;51.448;7.238;2023-06-24T08:15:25;11.90;;;10.70;;
1082;SDS011;530;51.448;7.238;2023-06-24T08:17:51;13.43;;;12.10;;
1082;SDS011;530;51.448;7.238;2023-06-24T08:20:19;10.47;;;9.50;;
1082;SDS011;530;51.448;7.238;2023-06-24T08:22:45;10.40;;;9.30;;
1082;SDS011;530;51.448;7.238;2023-06-24T08:25:11;9.80;;;8.90;;
1082;SDS011;530;51.448;7.238;2023-06-24T08:27:37;15.07;;;12.30;;
1082;SDS011;530;51.448;7.238;2023-06-24T08:30:04;15.00;;;13.50;;
1082;SDS011;530;51.448;7.238;2023-06-24T08:32:30;17.33;;;14.93;;
1082;SDS011;530;51.448;7.238;2023-06-24T08:34:56;23.03;;;13.57;;
1082;SDS011;530;51.448;7.238;2023-06-24T08:37:21;14.47;;;12.93;;
1082;SDS011;530;51.448;7.238;2023-06-24T08:39:47;13.33;;;10.90;;
1082;SDS011;530;51.448;7.238;2023-06-24T08:42:13;19.03;;;13.13;;
1082;SDS011;530;51.448;7.238;2023-06-24T08:44:38;14.17;;;12.07;;
1082;SDS011;530;51.448;7.238;2023-06-24T08:47:04;14.97;;;11.90;;
1082;SDS011;530;51.448;7.238;2023-06-24T08:49:30;11.97;;;9.53;;
1082;SDS011;530;51.448;7.238;2023-06-24T08:52:02;13.87;;;11.27;;
1082;SDS011;530;51.448;7.238;2023-06-24T08:54:33;11.77;;;10.47;;
1082;SDS011;530;51.448;7.238;2023-06-24T08:57:00;15.07;;;10.40;;
1082;SDS011;530;51.448;7.238;2023-06-24T08:59:30;11.80;;;8.80;;
1082;SDS011;530;51.448;7.238;2023-06-24T09:01:56;11.70;;;10.50;;
1082;SDS011;530;51.448;7.238;2023-06-24T09:04:22;13.20;;;9.80;;
1082;SDS011;530;51.448;7.238;2023-06-24T09:06:48;11.87;;;8.90;;
1082;SDS011;530;51.448;7.238;2023-06-24T09:09:17;10.33;;;9.03;;
1082;SDS011;530;51.448;7.238;2023-06-24T09:11:57;10.33;;;7.93;;
1082;SDS011;530;51.448;7.238;2023-06-24T09:14:24;8.90;;;8.03;;
1082;SDS011;530;51.448;7.238;2023-06-24T09:16:51;11.37;;;8.10;;
1082;SDS011;530;51.448;7.238;2023-06-24T09:19:21;7.37;;;6.50;;
1082;SDS011;530;51.448;7.238;2023-06-24T09:21:54;7.93;;;7.00;;
1082;SDS011;530;51.448;7.238;2023-06-24T09:24:30;7.90;;;7.10;;
1082;SDS011;530;51.448;7.238;2023-06-24T09:26:56;11.40;;;7.70;;
1082;SDS011;530;51.448;7.238;2023-06-24T09:29:25;9.13;;;7.40;;
1082;SDS011;530;51.448;7.238;2023-06-24T09:31:52;9.40;;;7.33;;
1082;SDS011;530;51.448;7.238;2023-06-24T09:34:19;8.70;;;7.80;;
1082;SDS011;530;51.448;7.238;2023-06-24T09:36:47;9.47;;;8.57;;
1082;SDS011;530;51.448;7.238;2023-06-24T09:39:20;10.03;;;7.77;;
1082;SDS011;530;51.448;7.238;2023-06-24T09:41:59;9.00;;;7.63;;
1082;SDS011;530;51.448;7.238;2023-06-24T09:44:26;8.27;;;6.90;;
1082;SDS011;530;51.448;7.238;2023-06-24T09:46:53;7.40;;;6.60;;
1082;SDS011;530;51.448;7.238;2023-06-24T09:49:19;8.07;;;7.37;;
1082;SDS011;530;51.448;7.238;2023-06-24T09:51:48;7.73;;;6.93;;
1082;SDS011;530;51.448;7.238;2023-06-24T09:54:19;10.50;;;9.40;;
1082;SDS011;530;51.448;7.238;2023-06-24T09:56:45;10.27;;;8.00;;
1082;SDS011;530;51.448;7.238;2023-06-24T09:59:14;8.03;;;7.33;;
1082;SDS011;530;51.448;7.238;2023-06-24T10:01:43;6.83;;;6.20;;
1082;SDS011;530;51.448;7.238;2023-06-24T10:04:13;8.30;;;6.60;;
1082;SDS011;530;51.448;7.238;2023-06-24T10:06:41;8.60;;;6.90;;
1082;SDS011;530;51.448;7.238;2023-06-24T10:09:07;9.23;;;6.60;;
1082;SDS011;530;51.448;7.238;2023-06-24T10:11:33;7.30;;;6.60;;
1082;SDS011;530;51.448;7.238;2023-06-24T10:13:59;7.77;;;5.53;;
1082;SDS011;530;51.448;7.238;2023-06-24T10:16:25;6.87;;;6.13;;
1082;SDS011;530;51.448;7.238;2023-06-24T10:18:51;8.03;;;7.20;;
1082;SDS011;530;51.448;7.238;2023-06-24T10:21:17;7.07;;;6.37;;
1082;SDS011;530;51.448;7.238;2023-06-24T10:23:50;6.93;;;6.23;;
1082;SDS011;530;51.448;7.238;2023-06-24T10:26:27;7.00;;;5.87;;
1082;SDS011;530;51.448;7.238;2023-06-24T10:36:57;6.20;;;5.10;;
1082;SDS011;530;51.448;7.238;2023-06-24T10:47:44;8.10;;;5.83;;
1082;SDS011;530;51.448;7.238;2023-06-24T10:50:21;6.47;;;5.57;;
1082;SDS011;530;51.448;7.238;2023-06-24T10:52:49;6.07;;;5.47;;
1082;SDS011;530;51.448;7.238;2023-06-24T10:55:21;6.00;;;5.30;;
1082;SDS011;530;51.448;7.238;2023-06-24T10:57:49;6.30;;;5.70;;
1082;SDS011;530;51.448;7.238;2023-06-24T11:00:14;6.00;;;5.40;;
1082;SDS011;530;51.448;7.238;2023-06-24T11:02:40;6.10;;;5.60;;
1082;SDS011;530;51.448;7.238;2023-06-24T11:05:07;5.80;;;5.30;;
1082;SDS011;530;51.448;7.238;2023-06-24T11:07:39;5.50;;;5.10;;
1082;SDS011;530;51.448;7.238;2023-06-24T11:12:33;5.73;;;5.07;;
1082;SDS011;530;51.448;7.238;2023-06-24T11:17:33;6.13;;;5.00;;
1082;SDS011;530;51.448;7.238;2023-06-24T11:19:59;5.57;;;5.07;;
1082;SDS011;530;51.448;7.238;2023-06-24T11:22:26;5.03;;;4.10;;
1082;SDS011;530;51.448;7.238;2023-06-24T11:24:52;5.77;;;4.50;;
1082;SDS011;530;51.448;7.238;2023-06-24T11:27:28;4.20;;;3.80;;
1082;SDS011;530;51.448;7.238;2023-06-24T11:29:56;5.33;;;4.83;;
1082;SDS011;530;51.448;7.238;2023-06-24T11:32:23;4.80;;;3.90;;
1082;SDS011;530;51.448;7.238;2023-06-24T11:34:49;6.60;;;4.20;;
1082;SDS011;530;51.448;7.238;2023-06-24T11:37:17;4.30;;;3.97;;
1082;SDS011;530;51.448;7.238;2023-06-24T11:39:43;4.00;;;3.60;;
1082;SDS011;530;51.448;7.238;2023-06-24T11:42:10;4.00;;;3.60;;
1082;SDS011;530;51.448;7.238;2023-06-24T11:44:40;6.20;;;3.67;;
1082;SDS011;530;51.448;7.238;2023-06-24T11:47:10;4.27;;;3.87;;
1082;SDS011;530;51.448;7.238;2023-06-24T11:50:18;7.90;;;4.00;;
1082;SDS011;530;51.448;7.238;2023-06-24T11:52:43;4.20;;;3.80;;
1082;SDS011;530;51.448;7.238;2023-06-24T11:57:53;5.20;;;4.70;;
1082;SDS011;530;51.448;7.238;2023-06-24T12:00:30;4.70;;;4.30;;
1082;SDS011;530;51.448;7.238;2023-06-24T12:02:57;4.90;;;4.40;;
1082;SDS011;530;51.448;7.238;2023-06-24T12:05:30;4.73;;;4.33;;
1082;SDS011;530;51.448;7.238;2023-06-24T12:07:58;5.83;;;4.70;;
1082;SDS011;530;51.448;7.238;2023-06-24T12:10:25;5.80;;;4.87;;
1082;SDS011;530;51.448;7.238;2023-06-24T12:12:52;4.83;;;4.13;;
1082;SDS011;530;51.448;7.238;2023-06-24T12:15:18;4.90;;;4.40;;
1082;SDS011;530;51.448;7.238;2023-06-24T12:17:44;5.23;;;4.73;;
1082;SDS011;530;51.448;7.238;2023-06-24T12:20:10;10.90;;;4.50;;
1082;SDS011;530;51.448;7.238;2023-06-24T12:22:36;5.43;;;4.43;;
1082;SDS011;530;51.448;7.238;2023-06-24T12:25:02;4.77;;;4.33;;
1082;SDS011;530;51.448;7.238;2023-06-24T12:27:28;4.87;;;4.47;;
1082;SDS011;530;51.448;7.238;2023-06-24T12:29:54;5.90;;;5.00;;
1082;SDS011;530;51.448;7.238;2023-06-24T12:32:20;4.30;;;3.93;;
1082;SDS011;530;51.448;7.238;2023-06-24T12:34:45;4.00;;;3.60;;
1082;SDS011;530;51.448;7.238;2023-06-24T12:37:11;5.40;;;4.37;;
1082;SDS011;530;51.448;7.238;2023-06-24T12:39:37;5.50;;;4.30;;
1082;SDS011;530;51.448;7.238;2023-06-24T12:42:04;6.00;;;4.57;;
1082;SDS011;530;51.448;7.238;2023-06-24T12:44:31;5.33;;;4.90;;
1082;SDS011;530;51.448;7.238;2023-06-24T12:46:57;4.80;;;4.40;;
1082;SDS011;530;51.448;7.238;2023-06-24T12:49:22;6.53;;;3.97;;
1082;SDS011;530;51.448;7.238;2023-06-24T12:51:48;4.43;;;4.03;;
1082;SDS011;530;51.448;7.238;2023-06-24T12:54:13;4.90;;;4.50;;
1082;SDS011;530;51.448;7.238;2023-06-24T12:56:39;4.10;;;3.70;;
1082;SDS011;530;51.448;7.238;2023-06-24T12:59:05;4.93;;;4.20;;
1082;SDS011;530;51.448;7.238;2023-06-24T13:01:31;4.13;;;3.83;;
1082;SDS011;530;51.448;7.238;2023-06-24T13:03:56;5.60;;;5.10;;
1082;SDS011;530;51.448;7.238;2023-06-24T13:06:22;5.27;;;4.27;;
1082;SDS011;530;51.448;7.238;2023-06-24T13:08:48;4.50;;;4.10;;
1082;SDS011;530;51.448;7.238;2023-06-24T13:11:13;4.70;;;4.30;;
1082;SDS011;530;51.448;7.238;2023-06-24T13:13:39;4.97;;;3.87;;
1082;SDS011;530;51.448;7.238;2023-06-24T13:16:05;4.50;;;4.10;;
1082;SDS011;530;51.448;7.238;2023-06-24T13:18:30;4.37;;;3.93;;
1082;SDS011;530;51.448;7.238;2023-06-24T13:20:56;4.53;;;4.13;;
1082;SDS011;530;51.448;7.238;2023-06-24T13:23:22;4.73;;;4.33;;
1082;SDS011;530;51.448;7.238;2023-06-24T13:25:47;4.73;;;4.30;;
1082;SDS011;530;51.448;7.238;2023-06-24T13:28:13;5.00;;;4.60;;
1082;SDS011;530;51.448;7.238;2023-06-24T13:30:39;6.83;;;4.53;;
1082;SDS011;530;51.448;7.238;2023-06-24T13:33:04;3.97;;;3.60;;
1082;SDS011;530;51.448;7.238;2023-06-24T13:35:30;4.27;;;3.87;;
1082;SDS011;530;51.448;7.238;2023-06-24T13:37:55;5.13;;;4.23;;
1082;SDS011;530;51.448;7.238;2023-06-24T13:40:23;5.33;;;4.23;;
1082;SDS011;530;51.448;7.238;2023-06-24T13:42:49;5.07;;;4.43;;
1082;SDS011;530;51.448;7.238;2023-06-24T13:45:15;4.20;;;3.90;;
1082;SDS011;530;51.448;7.238;2023-06-24T13:47:41;4.07;;;3.60;;
1082;SDS011;530;51.448;7.238;2023-06-24T13:50:07;4.60;;;4.20;;
1082;SDS011;530;51.448;7.238;2023-06-24T13:52:33;4.07;;;3.77;;
1082;SDS011;530;51.448;7.238;2023-06-24T13:54:59;4.40;;;4.00;;
1082;SDS011;530;51.448;7.238;2023-06-24T13:57:25;5.80;;;3.87;;
1082;SDS011;530;51.448;7.238;2023-06-24T13:59:51;6.20;;;3.90;;
1082;SDS011;530;51.448;7.238;2023-06-24T14:02:17;4.50;;;4.10;;
1082;SDS011;530;51.448;7.238;2023-06-24T14:04:44;3.83;;;3.53;;
1082;SDS011;530;51.448;7.238;2023-06-24T14:07:10;3.60;;;3.30;;
1082;SDS011;530;51.448;7.238;2023-06-24T14:09:36;3.60;;;3.30;;
1082;SDS011;530;51.448;7.238;2023-06-24T14:12:03;3.90;;;3.60;;
1082;SDS011;530;51.448;7.238;2023-06-24T14:14:29;4.63;;;3.80;;
1082;SDS011;530;51.448;7.238;2023-06-24T14:16:54;4.30;;;3.30;;
1082;SDS011;530;51.448;7.238;2023-06-24T14:19:20;4.10;;;3.77;;
1082;SDS011;530;51.448;7.238;2023-06-24T14:21:46;5.23;;;3.97;;
1082;SDS011;530;51.448;7.238;2023-06-24T14:24:12;3.83;;;3.53;;
1082;SDS011;530;51.448;7.238;2023-06-24T14:26:37;3.90;;;3.60;;
1082;SDS011;530;51.448;7.238;2023-06-24T14:29:03;4.23;;;3.93;;
1082;SDS011;530;51.448;7.238;2023-06-24T14:31:29;4.07;;;3.60;;
1082;SDS011;530;51.448;7.238;2023-06-24T14:33:55;3.90;;;3.60;;
1082;SDS011;530;51.448;7.238;2023-06-24T14:36:21;5.03;;;3.73;;
1082;SDS011;530;51.448;7.238;2023-06-24T14:38:47;4.23;;;3.93;;
1082;SDS011;530;51.448;7.238;2023-06-24T14:41:12;4.67;;;4.27;;
1082;SDS011;530;51.448;7.238;2023-06-24T14:43:38;4.77;;;3.67;;
1082;SDS011;530;51.448;7.238;2023-06-24T14:46:04;3.73;;;3.43;;
1082;SDS011;530;51.448;7.238;2023-06-24T14:48:29;3.93;;;3.60;;
1082;SDS011;530;51.448;7.238;2023-06-24T14:50:55;3.60;;;3.30;;
1082;SDS011;530;51.448;7.238;2023-06-24T14:53:20;5.20;;;4.00;;
1082;SDS011;530;51.448;7.238;2023-06-24T14:55:46;4.47;;;3.90;;
1082;SDS011;530;51.448;7.238;2023-06-24T14:58:12;6.43;;;4.40;;
1082;SDS011;530;51.448;7.238;2023-06-24T15:00:38;6.00;;;4.70;;
1082;SDS011;530;51.448;7.238;2023-06-24T15:03:03;4.87;;;4.37;;
1082;SDS011;530;51.448;7.238;2023-06-24T15:05:29;4.90;;;4.07;;
1082;SDS011;530;51.448;7.238;2023-06-24T15:07:56;5.50;;;4.20;;
1082;SDS011;530;51.448;7.238;2023-06-24T15:10:22;4.37;;;3.97;;
1082;SDS011;530;51.448;7.238;2023-06-24T15:12:48;4.87;;;4.40;;
1082;SDS011;530;51.448;7.238;2023-06-24T15:15:14;4.70;;;4.03;;
1082;SDS011;530;51.448;7.238;2023-06-24T15:17:40;4.33;;;3.93;;
1082;SDS011;530;51.448;7.238;2023-06-24T15:20:10;5.27;;;4.77;;
1082;SDS011;530;51.448;7.238;2023-06-24T15:22:36;4.27;;;3.87;;
1082;SDS011;530;51.448;7.238;2023-06-24T15:25:02;5.77;;;5.17;;
1082;SDS011;530;51.448;7.238;2023-06-24T15:27:28;4.93;;;4.37;;
1082;SDS011;530;51.448;7.238;2023-06-24T15:29:54;5.03;;;4.60;;
1082;SDS011;530;51.448;7.238;2023-06-24T15:32:20;6.53;;;4.27;;
1082;SDS011;530;51.448;7.238;2023-06-24T15:34:46;5.00;;;4.60;;
1082;SDS011;530;51.448;7.238;2023-06-24T15:37:12;5.03;;;4.53;;
1082;SDS011;530;51.448;7.238;2023-06-24T15:39:40;4.83;;;4.40;;
1082;SDS011;530;51.448;7.238;2023-06-24T15:42:06;4.57;;;4.17;;
1082;SDS011;530;51.448;7.238;2023-06-24T15:44:32;5.07;;;4.40;;
1082;SDS011;530;51.448;7.238;2023-06-24T15:46:58;5.30;;;4.70;;
1082;SDS011;530;51.448;7.238;2023-06-24T15:49:24;4.70;;;4.30;;
1082;SDS011;530;51.448;7.238;2023-06-24T15:51:49;4.57;;;4.07;;
1082;SDS011;530;51.448;7.238;2023-06-24T15:54:15;4.67;;;3.90;;
1082;SDS011;530;51.448;7.238;2023-06-24T15:56:41;4.20;;;3.80;;
1082;SDS011;530;51.448;7.238;2023-06-24T15:59:06;4.53;;;4.23;;
1082;SDS011;530;51.448;7.238;2023-06-24T16:01:32;4.27;;;3.97;;
1082;SDS011;530;51.448;7.238;2023-06-24T16:03:58;4.60;;;4.20;;
1082;SDS011;530;51.448;7.238;2023-06-24T16:06:24;5.77;;;4.13;;
1082;SDS011;530;51.448;7.238;2023-06-24T16:08:49;4.40;;;4.00;;